Grantville, Kansas
Current Conditions -  °F | °C
As of 6:53 AM on Friday 31 Oct 2014 (Local Time) from KTOP Reporting Station
Overcast Overcast  
Wind Chill: 26°   Ceiling: 2600
Heat Index: 36°   Visibility: 10mi
Dew Point: 26°   Wind: 18mph
Humidity: 67%   Direction: 340°NNW
Pressure: 30.47"   Gusts: 24mph
Location:  39.08°N, 95.56°W
Report Text: KTOP 311153Z 34016G21KT 10SM OVC026 02/M03 A3047 RMK AO2 PK WND 34027/1118 SLP321 T00221033 10100 20017 51037 $
Loading
Personal Weather Stations






























Interactive Weather Map
Tropical Storm Tracking
New forecast layout! Learn more

10-Day Weather Forecast

Advertisements
Track Severe Weather on mobile